Time;durP1;ratioP1;P1;durP2;ratioP2;P2;SDS_P1;SDS_P2;PMS_P1;PMS_P2;Temp;Humidity;BMP_temperature;BMP_pressure;BME280_temperature;BME280_humidity;BME280_pressure;Samples;Min_cycle;Max_cycle;Signal;HPM_P1;HPM_P2
2021/11/16 00:01:46;;;;;;;10.18;5.97;;;21.60;36.70;;;;;;5018936;28;20034;-53
2021/11/16 00:04:13;;;;;;;7.95;6.35;;;21.60;36.70;;;;;;5019771;28;20042;-50
2021/11/16 00:06:39;;;;;;;8.50;6.60;;;21.60;36.60;;;;;;5021815;28;20048;-51
2021/11/16 00:09:06;;;;;;;10.32;6.97;;;21.60;36.70;;;;;;5020414;28;20040;-51
2021/11/16 00:11:33;;;;;;;9.98;7.55;;;21.60;36.70;;;;;;5017936;28;20044;-52
2021/11/16 00:13:59;;;;;;;12.30;7.63;;;21.60;36.60;;;;;;5017416;28;20515;-53
2021/11/16 00:16:26;;;;;;;8.82;6.53;;;21.60;36.70;;;;;;5021157;28;20087;-51
2021/11/16 00:19:01;;;;;;;9.98;6.78;;;21.60;36.70;;;;;;5024171;28;20425;-53
2021/11/16 00:21:28;;;;;;;8.80;6.60;;;21.60;36.70;;;;;;5026213;28;20052;-51
2021/11/16 00:24:01;;;;;;;8.60;6.53;;;21.60;36.70;;;;;;5026699;28;20046;-52
2021/11/16 00:26:27;;;;;;;9.48;6.40;;;21.60;36.70;;;;;;5021269;28;20416;-54
2021/11/16 00:28:54;;;;;;;8.65;6.70;;;21.60;36.70;;;;;;5022711;28;20049;-51
2021/11/16 00:31:21;;;;;;;10.10;6.93;;;21.60;36.70;;;;;;5018027;28;20034;-47
2021/11/16 00:33:48;;;;;;;8.60;6.30;;;21.60;36.70;;;;;;5017456;28;20033;-47
2021/11/16 00:36:15;;;;;;;9.20;6.68;;;21.60;36.70;;;;;;5031003;28;20367;-53
2021/11/16 00:38:41;;;;;;;9.27;6.70;;;21.60;36.60;;;;;;5030796;28;20072;-52
2021/11/16 00:41:08;;;;;;;9.73;6.68;;;21.60;36.70;;;;;;5017600;28;20086;-53
2021/11/16 00:43:35;;;;;;;10.55;6.90;;;21.60;36.70;;;;;;5024293;28;20484;-53
2021/11/16 00:46:01;;;;;;;9.48;7.15;;;21.50;36.60;;;;;;5016886;28;20037;-53
2021/11/16 00:48:27;;;;;;;10.10;7.05;;;21.50;36.60;;;;;;5020582;28;20088;-51
2021/11/16 00:50:57;;;;;;;9.07;6.88;;;21.50;36.60;;;;;;5017870;28;20026;-50
2021/11/16 00:53:26;;;;;;;8.15;6.40;;;21.50;36.60;;;;;;5021790;28;20026;-54
2021/11/16 00:55:52;;;;;;;9.50;6.53;;;21.50;36.60;;;;;;5035579;28;20045;-50
2021/11/16 00:58:19;;;;;;;8.57;6.35;;;21.50;36.60;;;;;;5034774;28;20038;-49
2021/11/16 01:00:44;;;;;;;8.38;6.55;;;21.50;36.60;;;;;;5036322;28;20041;-49
2021/11/16 01:03:12;;;;;;;8.73;7.05;;;21.50;36.60;;;;;;5035315;28;20063;-51
2021/11/16 01:05:39;;;;;;;9.85;7.30;;;21.50;36.60;;;;;;5016973;28;20065;-50
2021/11/16 01:08:06;;;;;;;9.65;7.20;;;21.50;36.60;;;;;;5021662;28;20460;-47
2021/11/16 01:10:33;;;;;;;8.82;6.70;;;21.50;36.60;;;;;;5028385;28;20025;-49
2021/11/16 01:12:59;;;;;;;8.88;6.68;;;21.50;36.70;;;;;;5017134;28;20030;-51
2021/11/16 01:15:26;;;;;;;10.20;7.40;;;21.50;36.60;;;;;;5016683;28;20453;-50
2021/11/16 01:17:52;;;;;;;8.43;7.00;;;21.50;36.60;;;;;;5016311;28;20104;-53
2021/11/16 01:20:20;;;;;;;10.23;7.32;;;21.50;36.70;;;;;;5032554;28;20029;-51
2021/11/16 01:22:50;;;;;;;8.30;6.65;;;21.50;36.70;;;;;;5016971;28;20045;-51
2021/11/16 01:25:16;;;;;;;11.63;7.45;;;21.50;36.60;;;;;;5032368;28;20033;-48
2021/11/16 01:27:42;;;;;;;10.02;7.28;;;21.50;36.60;;;;;;5027579;28;20360;-48
2021/11/16 01:30:12;;;;;;;9.70;7.05;;;21.50;36.60;;;;;;5035929;28;20112;-49
2021/11/16 01:32:43;;;;;;;9.13;7.15;;;21.40;36.60;;;;;;5016804;28;20034;-52
2021/11/16 01:35:09;;;;;;;8.95;6.88;;;21.50;36.60;;;;;;5031264;28;20099;-50
2021/11/16 01:37:36;;;;;;;10.82;7.50;;;21.40;36.50;;;;;;5016743;28;20176;-47
2021/11/16 01:40:09;;;;;;;9.15;6.78;;;21.40;36.60;;;;;;5028125;28;20044;-47
2021/11/16 01:42:35;;;;;;;9.93;7.30;;;21.40;36.60;;;;;;5029661;28;20034;-52
2021/11/16 01:45:02;;;;;;;9.30;6.95;;;21.40;36.60;;;;;;5016512;28;20025;-51
2021/11/16 01:47:28;;;;;;;8.70;6.82;;;21.40;36.60;;;;;;5022009;28;20125;-50
2021/11/16 01:49:54;;;;;;;9.75;6.82;;;21.40;36.60;;;;;;5030972;28;20465;-52
2021/11/16 01:52:20;;;;;;;10.13;6.95;;;21.40;36.60;;;;;;5019509;28;20091;-52
2021/11/16 01:54:46;;;;;;;10.02;7.57;;;21.40;36.60;;;;;;5026889;28;20049;-49
2021/11/16 01:57:12;;;;;;;9.63;7.35;;;21.40;36.60;;;;;;5035441;28;20448;-47
2021/11/16 01:59:37;;;;;;;10.90;7.53;;;21.40;36.60;;;;;;5027644;28;20029;-52
2021/11/16 02:02:04;;;;;;;9.05;6.82;;;21.40;36.60;;;;;;5034184;28;20037;-50
2021/11/16 02:04:34;;;;;;;9.70;7.25;;;21.40;36.60;;;;;;5024530;28;20057;-50
2021/11/16 02:07:00;;;;;;;10.00;7.53;;;21.40;36.60;;;;;;5015222;28;20034;-51
2021/11/16 02:09:26;;;;;;;10.48;7.03;;;21.40;36.60;;;;;;5015963;28;20400;-49
2021/11/16 02:11:53;;;;;;;9.27;7.07;;;21.40;36.60;;;;;;5015746;28;20030;-51
2021/11/16 02:14:19;;;;;;;9.65;7.03;;;21.40;36.60;;;;;;5020326;28;20033;-48
2021/11/16 02:16:47;;;;;;;9.68;7.28;;;21.30;36.60;;;;;;5026837;28;20420;-52
2021/11/16 02:19:16;;;;;;;10.80;7.43;;;21.40;36.60;;;;;;5020016;28;20034;-50
2021/11/16 02:21:42;;;;;;;9.43;6.60;;;21.40;36.60;;;;;;5015709;28;20494;-52
2021/11/16 02:24:10;;;;;;;9.82;6.78;;;21.30;36.60;;;;;;5020456;28;20128;-50
2021/11/16 02:26:36;;;;;;;9.10;6.75;;;21.30;36.60;;;;;;5035289;28;20091;-49
2021/11/16 02:29:04;;;;;;;8.95;6.70;;;21.40;36.60;;;;;;5032940;28;20112;-47
2021/11/16 02:31:30;;;;;;;10.70;6.93;;;21.30;37.20;;;;;;5033333;28;20047;-48
2021/11/16 02:33:57;;;;;;;10.55;6.90;;;21.40;36.60;;;;;;5023796;28;20030;-51
2021/11/16 02:36:26;;;;;;;10.57;7.43;;;21.30;36.50;;;;;;5030690;28;20034;-52
2021/11/16 02:38:53;;;;;;;10.30;7.10;;;21.40;36.60;;;;;;5025076;28;20105;-49
2021/11/16 02:41:19;;;;;;;10.05;7.35;;;21.40;36.60;;;;;;5033508;28;20033;-49
2021/11/16 02:43:45;;;;;;;9.82;7.35;;;21.40;36.60;;;;;;5030616;28;20095;-56
2021/11/16 02:46:12;;;;;;;9.68;7.47;;;21.40;36.60;;;;;;5024860;28;20125;-49
2021/11/16 02:48:38;;;;;;;9.27;6.82;;;21.30;36.50;;;;;;5015411;28;20029;-51
2021/11/16 02:51:10;;;;;;;9.65;7.30;;;21.30;36.60;;;;;;5021506;28;20034;-50
2021/11/16 02:53:38;;;;;;;10.30;7.32;;;21.30;36.60;;;;;;5020635;28;20068;-51
2021/11/16 02:56:06;;;;;;;9.43;7.32;;;21.30;36.60;;;;;;5033907;28;20138;-48
2021/11/16 02:58:32;;;;;;;10.23;6.80;;;21.30;36.60;;;;;;5029441;28;20034;-51
2021/11/16 03:01:07;;;;;;;10.25;7.43;;;21.30;36.60;;;;;;5036816;28;20072;-53
2021/11/16 03:03:33;;;;;;;;;;;21.30;36.60;;;;;;5037126;28;20041;-50
2021/11/16 03:05:59;;;;;;;10.32;7.18;;;21.30;36.70;;;;;;5020429;28;19941;-49
2021/11/16 03:08:27;;;;;;;9.35;6.85;;;21.30;36.70;;;;;;5036542;28;20138;-51
2021/11/16 03:10:58;;;;;;;10.45;8.25;;;21.30;36.70;;;;;;5035364;28;20033;-48
2021/11/16 03:13:26;;;;;;;10.15;7.50;;;21.30;36.70;;;;;;5018735;28;20425;-50
2021/11/16 03:15:54;;;;;;;10.32;7.82;;;21.30;36.70;;;;;;5022690;28;20113;-51
2021/11/16 03:18:20;;;;;;;10.93;8.00;;;21.30;36.70;;;;;;5029320;28;20108;-50
2021/11/16 03:20:47;;;;;;;11.73;7.60;;;21.30;36.70;;;;;;5026956;28;20058;-46
2021/11/16 03:23:16;;;;;;;10.65;7.40;;;21.30;36.70;;;;;;5019239;28;20053;-49
2021/11/16 03:25:53;;;;;;;10.45;8.00;;;21.20;36.60;;;;;;5035446;28;20392;-50
2021/11/16 03:28:21;;;;;;;11.25;8.43;;;21.30;36.70;;;;;;5036999;28;20364;-51
2021/11/16 03:30:51;;;;;;;8.05;6.80;;;21.30;36.70;;;;;;5031171;28;20025;-49
2021/11/16 03:33:18;;;;;;;8.85;7.07;;;21.30;36.70;;;;;;5036267;28;20021;-52
2021/11/16 03:35:45;;;;;;;9.52;6.90;;;21.30;36.60;;;;;;5036710;28;20095;-54
2021/11/16 03:38:12;;;;;;;10.20;7.40;;;21.30;36.60;;;;;;5023200;28;20038;-54
2021/11/16 03:40:39;;;;;;;10.18;7.95;;;21.20;36.50;;;;;;5029547;28;20034;-47
2021/11/16 03:43:09;;;;;;;9.15;7.35;;;21.30;36.60;;;;;;5028211;28;20053;-50
2021/11/16 03:45:36;;;;;;;9.48;6.80;;;21.20;36.50;;;;;;5025232;28;20033;-54
2021/11/16 03:48:02;;;;;;;11.63;7.85;;;21.20;36.50;;;;;;5019584;28;20037;-54
2021/11/16 03:50:30;;;;;;;9.60;7.70;;;21.20;36.60;;;;;;5037222;28;20064;-48
2021/11/16 03:52:58;;;;;;;9.52;7.32;;;21.20;36.60;;;;;;5036964;28;20433;-52
2021/11/16 03:55:34;;;;;;;9.48;7.10;;;21.20;36.60;;;;;;5021161;28;20050;-50
2021/11/16 03:58:01;;;;;;;10.93;8.18;;;21.20;36.50;;;;;;5021248;28;20081;-55
2021/11/16 04:00:35;;;;;;;11.13;7.65;;;21.20;36.60;;;;;;5023127;28;20034;-50
2021/11/16 04:03:02;;;;;;;9.48;7.35;;;21.20;36.50;;;;;;5035556;28;20055;-53
2021/11/16 04:05:28;;;;;;;9.68;7.22;;;21.20;36.60;;;;;;5019399;28;20033;-54
2021/11/16 04:07:55;;;;;;;10.07;7.18;;;21.20;36.60;;;;;;5032506;28;20160;-52
2021/11/16 04:10:22;;;;;;;10.20;7.45;;;21.20;36.60;;;;;;5028412;28;20026;-53
2021/11/16 04:12:50;;;;;;;11.20;8.25;;;21.20;36.50;;;;;;5034711;28;20049;-52
2021/11/16 04:15:20;;;;;;;11.07;8.00;;;21.20;36.60;;;;;;5027616;28;20025;-52
2021/11/16 04:17:46;;;;;;;11.60;7.85;;;21.20;36.60;;;;;;5022094;28;20030;-53
2021/11/16 04:20:15;;;;;;;10.63;7.93;;;21.20;36.60;;;;;;5017290;28;20056;-53
2021/11/16 04:22:42;;;;;;;10.48;7.60;;;21.20;36.50;;;;;;5021588;28;20105;-50
2021/11/16 04:25:09;;;;;;;9.18;7.35;;;21.20;36.50;;;;;;5032166;28;20033;-51
2021/11/16 04:27:35;;;;;;;9.98;7.65;;;21.20;36.50;;;;;;5034854;28;20440;-52
2021/11/16 04:30:00;;;;;;;9.90;7.50;;;21.20;36.50;;;;;;5034530;28;20045;-53
2021/11/16 04:32:27;;;;;;;10.23;7.43;;;21.10;36.50;;;;;;5034317;28;20057;-51
2021/11/16 04:34:52;;;;;;;11.02;7.57;;;21.20;36.50;;;;;;5015806;28;20080;-51
2021/11/16 04:37:18;;;;;;;10.13;7.32;;;21.10;36.50;;;;;;5023655;28;20081;-51
2021/11/16 04:39:44;;;;;;;10.30;7.90;;;21.20;36.50;;;;;;5021371;28;20080;-50
2021/11/16 04:42:10;;;;;;;11.40;7.80;;;21.20;36.50;;;;;;5019388;28;20052;-51
2021/11/16 04:44:37;;;;;;;11.07;7.35;;;21.20;36.60;;;;;;5022041;28;20038;-54
2021/11/16 04:47:03;;;;;;;11.05;7.78;;;21.20;36.60;;;;;;5025793;28;20033;-50
2021/11/16 04:49:37;;;;;;;9.50;7.15;;;21.20;36.60;;;;;;5036166;28;20034;-50
2021/11/16 05:02:39;;;;;;;10.45;8.02;;;21.10;36.50;;;;;;5036451;28;20049;-51
2021/11/16 05:05:12;;;;;;;10.18;7.43;;;21.10;36.60;;;;;;5030294;28;20029;-52
2021/11/16 05:08:11;;;;;;;12.52;8.13;;;21.10;36.60;;;;;;5032839;28;20442;-50
2021/11/16 05:10:37;;;;;;;11.40;8.05;;;21.10;36.60;;;;;;5028738;28;20433;-50
2021/11/16 05:13:03;;;;;;;10.88;8.02;;;21.10;36.70;;;;;;5034211;28;20155;-48
2021/11/16 05:15:29;;;;;;;10.25;7.88;;;21.10;36.70;;;;;;5025938;28;20029;-51
2021/11/16 05:17:55;;;;;;;10.65;7.70;;;21.10;36.60;;;;;;5033341;28;20040;-48
2021/11/16 05:20:22;;;;;;;10.63;8.10;;;21.10;36.60;;;;;;5029461;28;20033;-48
2021/11/16 05:22:52;;;;;;;11.55;8.25;;;21.10;36.70;;;;;;5030582;28;20523;-50
2021/11/16 05:25:18;;;;;;;10.25;8.40;;;21.10;36.70;;;;;;5017188;28;20041;-49
2021/11/16 05:27:44;;;;;;;10.70;8.13;;;21.10;36.60;;;;;;5036373;28;20509;-54
2021/11/16 05:30:12;;;;;;;10.57;7.68;;;21.10;36.70;;;;;;5035908;28;20112;-48
2021/11/16 05:32:40;;;;;;;11.75;7.55;;;21.10;36.70;;;;;;5016272;28;20422;-46
2021/11/16 05:35:08;;;;;;;11.70;7.60;;;21.10;36.60;;;;;;5025336;28;20029;-51
2021/11/16 05:37:34;;;;;;;10.07;7.70;;;21.10;36.60;;;;;;5035058;28;20044;-50
2021/11/16 05:40:01;;;;;;;10.30;7.43;;;21.10;36.70;;;;;;5031909;28;20021;-51
2021/11/16 05:42:27;;;;;;;11.02;7.90;;;21.10;36.70;;;;;;5034529;28;20060;-50
2021/11/16 05:44:53;;;;;;;9.43;6.95;;;21.10;36.70;;;;;;5019816;28;20030;-53
2021/11/16 05:47:21;;;;;;;10.10;7.70;;;21.10;36.80;;;;;;5016234;28;20026;-52
2021/11/16 05:49:48;;;;;;;11.38;7.88;;;21.10;36.80;;;;;;5033503;28;20029;-52
2021/11/16 05:52:13;;;;;;;9.82;7.20;;;21.10;36.80;;;;;;5035541;28;20116;-47
2021/11/16 05:54:43;;;;;;;10.90;7.53;;;21.10;36.70;;;;;;5032238;28;20132;-48
2021/11/16 05:57:08;;;;;;;11.18;7.50;;;21.10;36.70;;;;;;5031890;28;20121;-50
2021/11/16 05:59:36;;;;;;;10.45;7.45;;;21.10;36.80;;;;;;5016656;28;20101;-50
2021/11/16 06:02:07;;;;;;;11.25;7.55;;;21.10;37.40;;;;;;5023670;28;20326;-47
2021/11/16 06:04:34;;;;;;;10.98;7.85;;;21.10;36.70;;;;;;5024730;28;20045;-46
2021/11/16 06:07:02;;;;;;;10.20;7.47;;;21.00;36.70;;;;;;5025154;28;20033;-49
2021/11/16 06:09:30;;;;;;;10.88;7.28;;;21.00;36.70;;;;;;5028028;28;20041;-48
2021/11/16 06:11:59;;;;;;;11.80;7.55;;;21.00;36.70;;;;;;5015928;28;20037;-55
2021/11/16 06:14:25;;;;;;;11.75;8.23;;;21.10;36.70;;;;;;5017937;28;20045;-51
2021/11/16 06:16:52;;;;;;;11.75;8.02;;;21.00;36.70;;;;;;5025592;28;20030;-52
2021/11/16 06:19:20;;;;;;;10.02;7.68;;;21.00;36.70;;;;;;5034517;28;20515;-49
2021/11/16 06:21:46;;;;;;;10.77;8.05;;;21.00;36.70;;;;;;5022998;28;20087;-46
2021/11/16 06:24:13;;;;;;;12.55;8.60;;;21.10;36.70;;;;;;5022068;28;20460;-49
2021/11/16 06:26:39;;;;;;;12.13;8.00;;;21.00;36.70;;;;;;5034326;28;20116;-50
2021/11/16 06:29:06;;;;;;;11.82;8.52;;;21.00;36.70;;;;;;5032208;28;20152;-49
2021/11/16 06:31:33;;;;;;;12.15;8.18;;;21.00;36.70;;;;;;5029600;28;20040;-49
2021/11/16 06:34:02;;;;;;;11.43;7.55;;;21.00;36.70;;;;;;5032828;28;20037;-51
2021/11/16 06:36:33;;;;;;;11.95;8.60;;;21.00;36.70;;;;;;5026837;28;20197;-50
2021/11/16 06:39:19;;;;;;;10.90;8.10;;;21.00;36.70;;;;;;5022335;28;20026;-49
2021/11/16 06:41:46;;;;;;;12.15;8.05;;;21.00;36.70;;;;;;5015698;28;20030;-51
2021/11/16 06:44:14;;;;;;;9.73;7.13;;;21.00;36.70;;;;;;5024890;28;20471;-46
2021/11/16 06:46:41;;;;;;;11.35;8.27;;;21.00;36.70;;;;;;5015922;28;20030;-51
2021/11/16 06:49:08;;;;;;;11.57;7.53;;;21.00;36.70;;;;;;5014904;28;20032;-50
2021/11/16 06:51:38;;;;;;;11.55;7.97;;;21.00;36.70;;;;;;5022514;28;20128;-51
2021/11/16 06:54:13;;;;;;;10.70;7.78;;;21.00;36.70;;;;;;5023745;28;20033;-50
2021/11/16 06:56:41;;;;;;;11.30;7.95;;;21.00;36.80;;;;;;5018137;28;20030;-49
2021/11/16 06:59:08;;;;;;;9.93;7.53;;;21.00;36.80;;;;;;5021116;28;20072;-55
2021/11/16 07:01:37;;;;;;;10.95;7.40;;;21.00;37.40;;;;;;5026351;28;20338;-54
2021/11/16 07:04:09;;;;;;;10.93;7.65;;;21.00;36.80;;;;;;5026842;28;20041;-51
2021/11/16 07:06:39;;;;;;;12.48;8.38;;;21.00;36.80;;;;;;5032762;28;20108;-51
2021/11/16 07:09:06;;;;;;;10.88;7.22;;;21.00;36.80;;;;;;5021529;28;20060;-52
2021/11/16 07:11:41;;;;;;;11.00;7.85;;;20.90;36.80;;;;;;5017583;28;20030;-50
2021/11/16 07:14:11;;;;;;;10.57;7.28;;;21.00;36.90;;;;;;5023949;28;20036;-51
2021/11/16 07:16:38;;;;;;;11.13;7.35;;;21.00;37.00;;;;;;5029478;28;20018;-53
2021/11/16 07:19:08;;;;;;;10.95;7.55;;;20.90;36.90;;;;;;5030499;28;20453;-48
2021/11/16 07:21:48;;;;;;;11.35;7.72;;;20.90;37.00;;;;;;5024112;28;20022;-52
2021/11/16 07:24:17;;;;;;;10.73;7.38;;;20.90;37.00;;;;;;5023915;28;20120;-52
2021/11/16 07:27:01;;;;;;;9.57;7.60;;;20.90;37.00;;;;;;5028430;28;20117;-52
2021/11/16 07:29:57;;;;;;;11.57;8.07;;;21.00;37.00;;;;;;5033312;28;20428;-46
2021/11/16 07:32:48;;;;;;;11.00;7.45;;;20.90;36.90;;;;;;5015071;28;20080;-50
2021/11/16 07:35:16;;;;;;;11.38;7.72;;;21.00;37.00;;;;;;5017380;28;20113;-52
2021/11/16 07:37:45;;;;;;;9.85;7.05;;;20.90;37.00;;;;;;5034300;28;20037;-53
2021/11/16 07:40:17;;;;;;;10.73;7.63;;;20.90;37.00;;;;;;5031852;28;20375;-52
2021/11/16 07:42:54;;;;;;;10.32;7.32;;;20.90;37.00;;;;;;5028959;28;20129;-51
2021/11/16 07:45:35;;;;;;;10.82;7.57;;;20.90;37.00;;;;;;5022525;28;20037;-55
2021/11/16 07:48:06;;;;;;;10.50;7.28;;;21.00;37.10;;;;;;5028019;28;20292;-53
2021/11/16 07:50:32;;;;;;;11.93;7.40;;;21.00;37.00;;;;;;5018585;28;20044;-54
2021/11/16 07:53:12;;;;;;;11.32;6.75;;;21.00;37.00;;;;;;5017477;28;20112;-51
2021/11/16 07:55:40;;;;;;;10.23;7.15;;;21.10;37.00;;;;;;5017981;28;20053;-47
2021/11/16 07:58:08;;;;;;;10.75;7.03;;;21.20;36.90;;;;;;5024811;28;20479;-54
2021/11/16 08:00:38;;;;;;;10.93;7.00;;;21.20;36.80;;;;;;5035168;28;20029;-50
2021/11/16 08:03:14;;;;;;;10.25;7.15;;;21.30;36.70;;;;;;5028312;28;20349;-52
2021/11/16 08:05:46;;;;;;;10.30;7.15;;;21.40;36.60;;;;;;5018270;28;20033;-51
2021/11/16 08:08:27;;;;;;;10.85;7.50;;;21.50;36.50;;;;;;5028195;28;20061;-55
2021/11/16 08:11:35;;;;;;;11.18;6.85;;;21.60;36.50;;;;;;5032823;28;20029;-49
2021/11/16 08:14:06;;;;;;;9.57;7.22;;;21.70;36.40;;;;;;5031034;28;20029;-52
2021/11/16 08:16:36;;;;;;;10.60;7.18;;;21.70;36.30;;;;;;5031739;28;20437;-54
2021/11/16 08:19:09;;;;;;;11.43;7.03;;;21.80;36.30;;;;;;5024098;28;20042;-51
2021/11/16 08:21:37;;;;;;;10.50;6.88;;;21.90;36.20;;;;;;5027572;28;20449;-49
2021/11/16 08:24:08;;;;;;;10.55;6.95;;;21.90;36.10;;;;;;5026924;28;20084;-49
2021/11/16 08:26:39;;;;;;;11.98;7.85;;;22.00;36.10;;;;;;5025496;28;20022;-50
2021/11/16 08:29:08;;;;;;;11.30;7.57;;;22.10;36.10;;;;;;5023035;28;20078;-52
2021/11/16 08:31:42;;;;;;;11.52;7.78;;;22.10;36.00;;;;;;5026921;28;20033;-50
2021/11/16 08:34:09;;;;;;;10.90;7.38;;;22.20;35.90;;;;;;5023673;28;20029;-49
2021/11/16 08:37:06;;;;;;;9.95;7.40;;;22.20;35.90;;;;;;5026111;28;20033;-48
2021/11/16 08:39:45;;;;;;;11.45;7.07;;;22.30;35.80;;;;;;5015948;28;20149;-50
2021/11/16 08:42:20;;;;;;;11.00;8.23;;;22.30;35.80;;;;;;5029294;28;20045;-51
2021/11/16 08:44:56;;;;;;;10.35;7.45;;;22.40;35.70;;;;;;5028323;28;20038;-49
2021/11/16 08:47:37;;;;;;;11.00;7.00;;;22.40;35.60;;;;;;5023054;28;20040;-52
2021/11/16 08:50:29;;;;;;;10.63;7.57;;;22.50;35.60;;;;;;5024377;28;20021;-54
2021/11/16 08:52:56;;;;;;;9.88;6.80;;;22.50;35.60;;;;;;5023741;28;20061;-53
2021/11/16 08:55:28;;;;;;;10.57;6.93;;;22.60;35.60;;;;;;5029240;28;20057;-52
2021/11/16 08:57:55;;;;;;;9.70;6.65;;;22.60;35.50;;;;;;5022671;28;20045;-57
2021/11/16 09:00:28;;;;;;;10.15;7.28;;;22.60;35.50;;;;;;5022007;28;20677;-52
2021/11/16 09:03:26;;;;;;;12.52;7.63;;;22.60;35.40;;;;;;5023061;28;20045;-49
2021/11/16 09:05:53;;;;;;;12.32;8.55;;;22.70;35.40;;;;;;5025329;28;20060;-51
2021/11/16 09:08:24;;;;;;;10.15;6.97;;;22.70;35.40;;;;;;5023436;28;20488;-50
2021/11/16 09:11:00;;;;;;;9.93;7.25;;;22.80;35.40;;;;;;5034899;28;20037;-52
2021/11/16 09:13:32;;;;;;;11.32;7.78;;;22.80;35.40;;;;;;5033797;28;20039;-47
2021/11/16 09:16:05;;;;;;;10.93;8.30;;;22.80;35.20;;;;;;5016127;28;20066;-53
2021/11/16 09:18:39;;;;;;;13.20;7.80;;;22.80;35.10;;;;;;5019007;28;20092;-49
2021/11/16 09:21:14;;;;;;;11.90;7.45;;;22.90;35.00;;;;;;5020675;28;20022;-51
2021/11/16 09:23:49;;;;;;;11.90;7.68;;;22.90;35.00;;;;;;5018115;28;20041;-52
2021/11/16 09:29:24;;;;;;;9.20;6.68;;;22.90;34.90;;;;;;5034452;28;20040;-49
2021/11/16 09:32:00;;;;;;;9.30;6.63;;;23.00;34.90;;;;;;5019584;28;20368;-51
2021/11/16 09:34:31;;;;;;;9.95;7.05;;;23.00;34.80;;;;;;5035734;28;20421;-49
2021/11/16 09:36:59;;;;;;;11.32;7.18;;;23.00;34.80;;;;;;5020365;28;20037;-50
2021/11/16 09:39:47;;;;;;;8.63;5.95;;;23.00;34.80;;;;;;5015933;28;20377;-51
2021/11/16 09:42:22;;;;;;;8.98;6.40;;;23.00;34.70;;;;;;5021132;28;20033;-48
2021/11/16 09:44:52;;;;;;;8.90;6.13;;;23.10;34.70;;;;;;5018554;28;20175;-52
2021/11/16 09:47:30;;;;;;;7.90;5.82;;;23.10;34.70;;;;;;5022029;28;20053;-52
2021/11/16 09:49:59;;;;;;;9.82;6.38;;;23.10;34.60;;;;;;5020598;28;20032;-52
2021/11/16 09:52:35;;;;;;;8.63;5.93;;;23.10;34.70;;;;;;5019368;28;20060;-49
2021/11/16 09:55:07;;;;;;;8.98;6.22;;;23.10;34.50;;;;;;5016458;28;20073;-52
2021/11/16 09:57:53;;;;;;;8.82;6.35;;;23.10;34.60;;;;;;5016721;28;20134;-53
2021/11/16 10:00:27;;;;;;;9.43;6.93;;;23.00;34.50;;;;;;5021663;28;20026;-52
2021/11/16 10:02:56;;;;;;;8.98;6.75;;;23.00;34.50;;;;;;5034835;28;20471;-51
2021/11/16 10:05:26;;;;;;;9.45;6.78;;;22.90;34.50;;;;;;5027617;28;20037;-48
2021/11/16 10:08:01;;;;;;;10.32;7.18;;;22.90;34.50;;;;;;5014916;28;20496;-52
2021/11/16 10:10:31;;;;;;;12.85;7.40;;;22.80;34.50;;;;;;5016128;28;20048;-51
2021/11/16 10:13:03;;;;;;;9.70;6.50;;;22.80;34.60;;;;;;5020371;28;20029;-54
2021/11/16 10:15:32;;;;;;;8.90;6.80;;;22.80;34.60;;;;;;5030439;28;20493;-52
2021/11/16 10:17:58;;;;;;;8.40;6.50;;;22.70;34.60;;;;;;5029807;28;20044;-54
2021/11/16 10:20:29;;;;;;;9.55;6.75;;;22.70;34.60;;;;;;5018930;28;20033;-55
2021/11/16 10:22:58;;;;;;;10.68;6.90;;;22.70;34.60;;;;;;5019940;28;20191;-60
2021/11/16 10:25:27;;;;;;;10.73;7.25;;;22.70;34.70;;;;;;5021441;28;20464;-58
2021/11/16 10:27:56;;;;;;;9.52;6.22;;;22.60;34.60;;;;;;5029431;28;20029;-54
2021/11/16 10:30:26;;;;;;;9.75;6.82;;;22.50;34.70;;;;;;5017414;28;20041;-51
2021/11/16 10:33:21;;;;;;;9.80;5.88;;;22.40;34.80;;;;;;5025937;28;20037;-49
2021/11/16 10:36:00;;;;;;;13.20;7.30;;;22.30;34.80;;;;;;5029355;28;20040;-50
2021/11/16 10:38:44;;;;;;;9.32;6.57;;;22.20;35.00;;;;;;5016001;28;20072;-51
2021/11/16 10:41:35;;;;;;;9.27;6.13;;;22.20;35.10;;;;;;5023132;28;20461;-50
2021/11/16 10:44:06;;;;;;;8.98;6.10;;;22.10;35.20;;;;;;5016128;28;20038;-51
2021/11/16 10:46:35;;;;;;;8.73;5.90;;;22.10;35.40;;;;;;5018457;28;20022;-49
2021/11/16 10:49:09;;;;;;;9.07;6.35;;;22.10;35.50;;;;;;5015628;28;20034;-50
2021/11/16 10:51:36;;;;;;;7.93;5.85;;;22.10;35.60;;;;;;5025491;28;20026;-48
2021/11/16 10:54:04;;;;;;;8.20;5.60;;;22.10;35.70;;;;;;5030491;28;20327;-53
2021/11/16 10:56:33;;;;;;;9.35;5.72;;;22.10;36.30;;;;;;5015808;28;20356;-49
2021/11/16 10:59:13;;;;;;;7.43;5.20;;;22.20;35.80;;;;;;5018084;28;20029;-57
2021/11/16 11:01:54;;;;;;;10.25;5.50;;;22.20;35.80;;;;;;5020448;28;20049;-52
2021/11/16 11:04:25;;;;;;;8.02;5.80;;;22.20;35.80;;;;;;5028637;28;20464;-55
2021/11/16 11:06:52;;;;;;;8.65;5.88;;;22.20;35.80;;;;;;5031046;28;20344;-57
2021/11/16 11:09:22;;;;;;;7.47;5.32;;;22.20;35.80;;;;;;5020901;28;20334;-48
2021/11/16 11:11:50;;;;;;;8.63;5.50;;;22.20;35.80;;;;;;5015142;28;20479;-54
2021/11/16 11:14:21;;;;;;;6.75;5.07;;;22.20;35.80;;;;;;5017731;28;20034;-51
2021/11/16 11:16:56;;;;;;;7.15;4.85;;;22.20;35.70;;;;;;5023845;28;20113;-51
2021/11/16 11:19:34;;;;;;;7.05;4.70;;;22.20;35.70;;;;;;5016944;28;20061;-57
2021/11/16 11:24:59;;;;;;;7.53;4.15;;;22.30;35.70;;;;;;5037435;28;20033;-46
2021/11/16 11:27:41;;;;;;;6.63;4.85;;;22.30;35.60;;;;;;5027462;28;20095;-54
2021/11/16 11:30:14;;;;;;;6.22;4.60;;;22.30;35.50;;;;;;5030036;28;20356;-50
2021/11/16 11:32:42;;;;;;;6.10;4.43;;;22.40;35.50;;;;;;5025624;28;20034;-51
2021/11/16 11:35:08;;;;;;;8.02;4.75;;;22.40;35.40;;;;;;5020404;28;20029;-51
2021/11/16 11:37:36;;;;;;;8.40;4.10;;;22.40;35.30;;;;;;5026412;28;20076;-52
2021/11/16 11:40:27;;;;;;;7.82;4.43;;;22.50;35.20;;;;;;5019942;28;20025;-58
2021/11/16 11:43:03;;;;;;;6.35;3.88;;;22.50;35.20;;;;;;5021298;28;20044;-51
2021/11/16 11:45:39;;;;;;;5.72;4.00;;;22.60;35.20;;;;;;5026070;28;20092;-52
2021/11/16 11:48:09;;;;;;;5.75;3.90;;;22.70;35.20;;;;;;5025902;28;20532;-52
2021/11/16 11:50:38;;;;;;;5.22;3.67;;;22.80;35.30;;;;;;5024009;28;20025;-50
2021/11/16 11:53:09;;;;;;;7.70;4.03;;;22.80;35.20;;;;;;5026645;28;20491;-51
2021/11/16 11:55:38;;;;;;;6.18;4.25;;;22.90;35.10;;;;;;5023558;28;20144;-54
2021/11/16 11:58:05;;;;;;;5.65;3.75;;;22.90;35.60;;;;;;5021644;28;20056;-52
2021/11/16 12:00:33;;;;;;;6.75;3.95;;;22.90;34.90;;;;;;5026545;28;20037;-52
2021/11/16 12:02:59;;;;;;;4.70;3.55;;;23.00;34.90;;;;;;5022608;28;20069;-51
2021/11/16 12:05:27;;;;;;;6.95;4.22;;;23.00;34.80;;;;;;5025760;28;20030;-48
2021/11/16 12:07:53;;;;;;;6.40;3.53;;;23.00;34.70;;;;;;5029689;28;20031;-55
2021/11/16 12:10:20;;;;;;;5.55;3.85;;;23.00;34.60;;;;;;5028536;28;20021;-51
2021/11/16 12:12:46;;;;;;;5.63;3.53;;;23.00;34.60;;;;;;5022399;28;20087;-52
2021/11/16 12:15:24;;;;;;;4.88;3.60;;;23.10;34.60;;;;;;5030911;28;20022;-49
2021/11/16 12:17:53;;;;;;;5.10;3.75;;;23.10;34.40;;;;;;5019217;28;20402;-47
2021/11/16 12:20:57;;;;;;;6.22;4.20;;;23.10;34.40;;;;;;5025593;28;20041;-48
2021/11/16 12:23:42;;;;;;;5.55;3.92;;;23.10;34.20;;;;;;4992325;28;20053;-51
2021/11/16 12:26:10;;;;;;;5.38;3.90;;;23.10;34.20;;;;;;5031047;28;20045;-50
2021/11/16 12:28:37;;;;;;;6.05;3.80;;;23.00;34.10;;;;;;5020172;28;20401;-54
2021/11/16 12:31:03;;;;;;;7.30;4.45;;;23.00;34.10;;;;;;5020676;28;20076;-51
2021/11/16 12:33:37;;;;;;;5.28;3.97;;;23.00;34.00;;;;;;5028829;28;20032;-48
2021/11/16 12:36:04;;;;;;;6.07;4.00;;;23.00;33.90;;;;;;5029607;28;20120;-49
2021/11/16 12:38:39;;;;;;;5.95;3.83;;;23.00;34.00;;;;;;5024220;28;20307;-49
2021/11/16 12:41:27;;;;;;;6.05;3.78;;;23.00;33.90;;;;;;5023099;28;20037;-50
2021/11/16 12:43:55;;;;;;;6.60;4.63;;;23.00;33.80;;;;;;5021177;28;20120;-48
2021/11/16 12:46:22;;;;;;;6.05;4.32;;;23.00;33.80;;;;;;5018992;28;20044;-48
2021/11/16 12:48:55;;;;;;;5.75;4.20;;;22.90;33.70;;;;;;5020875;28;20030;-48
2021/11/16 12:51:25;;;;;;;7.22;4.57;;;23.00;33.90;;;;;;5020553;28;20088;-50
2021/11/16 12:53:59;;;;;;;6.45;4.57;;;23.00;34.00;;;;;;5030054;28;20072;-48
2021/11/16 12:56:48;;;;;;;6.10;3.95;;;23.00;34.00;;;;;;5023795;28;20056;-52
2021/11/16 12:59:18;;;;;;;5.57;3.83;;;23.00;33.90;;;;;;5022174;28;20040;-52
2021/11/16 13:01:56;;;;;;;7.30;4.00;;;23.00;34.00;;;;;;5028695;28;20037;-47
2021/11/16 13:04:42;;;;;;;5.13;3.90;;;23.00;33.90;;;;;;5028934;28;20041;-50
2021/11/16 13:07:29;;;;;;;8.13;3.97;;;23.10;33.90;;;;;;5025150;28;20029;-51
2021/11/16 13:10:15;;;;;;;8.10;4.55;;;23.10;33.80;;;;;;5026647;28;20333;-49
2021/11/16 13:13:04;;;;;;;5.25;3.47;;;23.10;33.80;;;;;;5024288;28;20044;-51
2021/11/16 13:15:33;;;;;;;5.75;3.67;;;23.10;33.80;;;;;;5028622;28;20084;-58
2021/11/16 13:18:37;;;;;;;8.00;4.72;;;23.10;33.80;;;;;;5022090;28;20077;-51